createdAt,value
2023-06-19T00:00:03.113Z,84.11
2023-06-19T00:01:03.246Z,82.91
2023-06-19T00:02:02.529Z,83.51
2023-06-19T00:03:02.281Z,83.81
2023-06-19T00:04:02.261Z,85.01
2023-06-19T00:05:02.292Z,85.05
2023-06-19T00:06:02.393Z,85.55
2023-06-19T00:07:02.512Z,84.55
2023-06-19T00:08:02.367Z,83.55
2023-06-19T00:09:02.968Z,83.25
2023-06-19T00:10:02.956Z,83.21
2023-06-19T00:11:02.781Z,83.71
2023-06-19T00:12:02.989Z,82.91
2023-06-19T00:13:03.050Z,83.61
2023-06-19T00:14:03.118Z,83.31
2023-06-19T00:15:03.193Z,82.71
2023-06-19T00:16:03.176Z,84.21
2023-06-19T00:17:03.122Z,85.35
2023-06-19T00:18:03.458Z,85.45
2023-06-19T00:19:02.912Z,84.25
2023-06-19T00:20:03.139Z,85.45
2023-06-19T00:21:03.228Z,84.95
2023-06-19T00:22:02.402Z,83.55
2023-06-19T00:23:02.683Z,85.55
2023-06-19T00:24:02.572Z,87.25
2023-06-19T00:25:02.542Z,87.25
2023-06-19T00:26:02.438Z,85.15
2023-06-19T00:27:03.000Z,83.55
2023-06-19T00:28:03.312Z,82.75
2023-06-19T00:29:03.370Z,82.15
2023-06-19T00:30:03.353Z,84.65
2023-06-19T00:31:03.006Z,85.65
2023-06-19T00:32:03.111Z,85.05
2023-06-19T00:33:03.285Z,85.45
2023-06-19T00:34:02.932Z,85.69
2023-06-19T00:35:03.075Z,84.69
2023-06-19T00:36:03.075Z,85.39
2023-06-19T00:37:03.160Z,85.05
2023-06-19T00:38:03.270Z,85.49
2023-06-19T00:39:03.401Z,87.39
2023-06-19T00:40:03.476Z,87.53
2023-06-19T00:41:03.352Z,87.53
2023-06-19T00:42:02.458Z,86.19
2023-06-19T00:43:02.574Z,84.39
2023-06-19T00:44:02.758Z,84.79
2023-06-19T00:45:02.603Z,86.79
2023-06-19T00:46:02.699Z,85.89
2023-06-19T00:47:02.584Z,83.39
2023-06-19T00:48:02.845Z,84.39
2023-06-19T00:49:02.767Z,85.09
2023-06-19T00:50:02.858Z,85.39
2023-06-19T00:51:02.752Z,82.69
2023-06-19T00:52:02.842Z,82.39
2023-06-19T00:53:02.954Z,81.89
2023-06-19T00:54:03.070Z,82.39
2023-06-19T00:55:02.575Z,82.69
2023-06-19T00:56:02.656Z,81.79
2023-06-19T00:57:03.464Z,82.39
2023-06-19T00:58:03.280Z,81.89
2023-06-19T00:59:03.362Z,81.29
2023-06-19T01:00:03.509Z,81.99
2023-06-19T01:01:08.760Z,82.59
2023-06-19T01:02:03.229Z,84.53
2023-06-19T01:03:03.238Z,84.73
2023-06-19T01:04:03.212Z,85.83
2023-06-19T01:05:02.817Z,85.57
2023-06-19T01:06:02.950Z,86.27
2023-06-19T01:07:02.983Z,86.27
2023-06-19T01:08:02.551Z,85.27
2023-06-19T01:09:02.728Z,86.87
2023-06-19T01:10:02.446Z,86.18
2023-06-19T01:11:09.029Z,85.57
2023-06-19T01:12:03.368Z,85.68
2023-06-19T01:13:03.476Z,84.47
2023-06-19T01:14:03.322Z,83.47
2023-06-19T01:15:03.368Z,82.77
2023-06-19T01:16:03.463Z,82.17
2023-06-19T01:17:03.527Z,83.57
2023-06-19T01:18:03.720Z,86.43
2023-06-19T01:19:03.631Z,84.93
2023-06-19T01:20:03.723Z,83.43
2023-06-19T01:21:03.496Z,82.33
2023-06-19T01:22:03.696Z,82.13
2023-06-19T01:23:03.153Z,81.93
2023-06-19T01:24:03.332Z,81.43
2023-06-19T01:25:03.276Z,81.33
2023-06-19T01:26:03.405Z,82.13
2023-06-19T01:27:02.781Z,84.33
2023-06-19T01:28:02.893Z,84.63
2023-06-19T01:29:02.975Z,82.83
2023-06-19T01:30:02.951Z,82.33
2023-06-19T01:31:02.941Z,82.53
2023-06-19T01:32:03.777Z,82.63
2023-06-19T01:33:03.953Z,82.03
2023-06-19T01:34:03.856Z,82.43
2023-06-19T01:35:03.668Z,82.53
2023-06-19T01:36:03.771Z,83.53
2023-06-19T01:37:03.850Z,83.33
2023-06-19T01:38:03.912Z,84.03
2023-06-19T01:39:03.763Z,84.73
2023-06-19T01:40:03.879Z,84.03
2023-06-19T01:41:03.979Z,84.63
2023-06-19T01:42:03.335Z,84.37
2023-06-19T01:43:03.387Z,83.67
2023-06-19T01:44:03.503Z,83.73
2023-06-19T01:45:03.658Z,83.73
2023-06-19T01:46:03.324Z,82.73
2023-06-19T01:47:03.974Z,82.03
2023-06-19T01:48:03.912Z,82.13
2023-06-19T01:49:03.881Z,84.13
2023-06-19T01:50:03.926Z,81.93
2023-06-19T01:51:04.002Z,82.63
2023-06-19T01:52:02.908Z,83.23
2023-06-19T01:53:02.694Z,82.83
2023-06-19T01:54:02.756Z,82.73
2023-06-19T01:55:02.868Z,82.53
2023-06-19T01:56:02.948Z,82.93
2023-06-19T01:57:03.141Z,81.73
2023-06-19T01:58:03.508Z,81.83
2023-06-19T01:59:03.598Z,82.93
2023-06-19T02:00:03.698Z,83.13
2023-06-19T02:01:03.428Z,83.53
2023-06-19T02:02:01.704Z,82.87
2023-06-19T02:03:02.297Z,83.37
2023-06-19T02:04:01.862Z,80.87
2023-06-19T02:05:01.988Z,80.57
2023-06-19T02:06:02.007Z,80.57
2023-06-19T02:07:02.515Z,80.57
2023-06-19T02:08:02.624Z,82.17
2023-06-19T02:09:02.667Z,82.47
2023-06-19T02:10:02.756Z,82.87
2023-06-19T02:11:02.168Z,83.17
2023-06-19T02:12:02.377Z,84.17
2023-06-19T02:13:02.523Z,84.17
2023-06-19T02:14:02.395Z,84.61
2023-06-19T02:15:02.870Z,83.71
2023-06-19T02:16:02.740Z,83.01
2023-06-19T02:17:01.942Z,84.31
2023-06-19T02:18:02.048Z,83.11
2023-06-19T02:19:02.170Z,82.41
2023-06-19T02:20:02.465Z,82.21
2023-06-19T02:21:02.271Z,82.31
2023-06-19T02:22:02.258Z,82.41
2023-06-19T02:23:02.418Z,82.67
2023-06-19T02:24:02.549Z,82.67
2023-06-19T02:25:02.617Z,82.67
2023-06-19T02:26:02.470Z,82.37
2023-06-19T02:27:02.586Z,82.57
2023-06-19T02:28:03.138Z,82.87
2023-06-19T02:29:03.069Z,83.21
2023-06-19T02:30:03.183Z,82.71
2023-06-19T02:31:02.958Z,83.61
2023-06-19T02:32:02.225Z,84.61
2023-06-19T02:33:02.591Z,84.21
2023-06-19T02:34:02.305Z,85.11
2023-06-19T02:35:02.308Z,83.61
2023-06-19T02:36:02.387Z,82.81
2023-06-19T02:37:02.516Z,84.41
2023-06-19T02:38:02.629Z,82.41
2023-06-19T02:39:02.746Z,82.81
2023-06-19T02:40:02.903Z,83.41
2023-06-19T02:41:02.934Z,82.81
2023-06-19T02:42:02.303Z,84.21
2023-06-19T02:43:02.193Z,82.01
2023-06-19T02:44:01.954Z,81.41
2023-06-19T02:45:02.068Z,81.21
2023-06-19T02:46:02.265Z,80.61
2023-06-19T02:47:02.406Z,80.51
2023-06-19T02:48:02.542Z,80.51
2023-06-19T02:49:02.470Z,80.21
2023-06-19T02:50:02.598Z,80.91
2023-06-19T02:51:02.516Z,82.61
2023-06-19T02:52:02.645Z,83.31
2023-06-19T02:53:02.793Z,84.91
2023-06-19T02:54:02.503Z,85.35
2023-06-19T02:55:03.022Z,85.46
2023-06-19T02:56:03.176Z,85.55
2023-06-19T02:57:02.402Z,85.15
2023-06-19T02:58:02.019Z,84.95
2023-06-19T02:59:02.263Z,84.05
2023-06-19T03:00:02.441Z,84.25
2023-06-19T03:01:01.825Z,85.35
2023-06-19T03:02:02.710Z,86.16
2023-06-19T03:03:02.509Z,86.69
2023-06-19T03:04:02.780Z,85.39
2023-06-19T03:05:02.983Z,85.19
2023-06-19T03:06:02.941Z,84.89
2023-06-19T03:07:03.092Z,84.95
2023-06-19T03:08:03.290Z,85.80
2023-06-19T03:09:02.894Z,85.69
2023-06-19T03:10:03.448Z,85.55
2023-06-19T03:11:02.845Z,83.85
2023-06-19T03:12:02.799Z,83.45
2023-06-19T03:13:02.466Z,83.05
2023-06-19T03:14:02.814Z,82.85
2023-06-19T03:15:03.015Z,82.55
2023-06-19T03:16:02.517Z,84.95
2023-06-19T03:17:03.252Z,82.85
2023-06-19T03:18:03.520Z,82.45
2023-06-19T03:19:03.621Z,84.89
2023-06-19T03:20:03.756Z,85.69
2023-06-19T03:21:03.289Z,84.89
2023-06-19T03:22:03.098Z,83.49
2023-06-19T03:23:03.062Z,82.69
2023-06-19T03:24:03.358Z,83.69
2023-06-19T03:25:02.977Z,83.29
2023-06-19T03:26:03.197Z,84.59
2023-06-19T03:27:03.426Z,83.39
2023-06-19T03:28:03.679Z,84.99
2023-06-19T03:29:03.119Z,84.29
2023-06-19T03:30:03.273Z,83.69
2023-06-19T03:31:03.402Z,84.39
2023-06-19T03:32:03.577Z,84.19
2023-06-19T03:33:03.873Z,84.09
2023-06-19T03:34:03.697Z,83.89
2023-06-19T03:35:03.797Z,83.29
2023-06-19T03:36:03.306Z,82.89
2023-06-19T03:37:03.218Z,84.79
2023-06-19T03:38:03.433Z,84.49
2023-06-19T03:39:03.087Z,85.13
2023-06-19T03:40:03.205Z,85.03
2023-06-19T03:41:03.454Z,86.24
2023-06-19T03:42:03.626Z,85.33
2023-06-19T03:43:03.856Z,84.83
2023-06-19T03:44:03.780Z,85.94
2023-06-19T03:45:03.255Z,85.33
2023-06-19T03:46:03.580Z,86.04
2023-06-19T03:47:02.810Z,85.83
2023-06-19T03:48:02.611Z,85.94
2023-06-19T03:49:02.893Z,85.94
2023-06-19T03:50:18.964Z,85.94
2023-06-19T03:51:02.864Z,85.63
2023-06-19T03:52:03.594Z,86.33
2023-06-19T03:53:03.141Z,87.04
2023-06-19T03:54:03.411Z,86.24
2023-06-19T03:55:03.604Z,85.94
2023-06-19T03:56:03.144Z,85.53
2023-06-19T03:57:03.155Z,85.94
2023-06-19T03:58:02.969Z,85.53
2023-06-19T03:59:03.217Z,85.53
2023-06-19T04:00:03.270Z,85.44
2023-06-19T04:01:03.114Z,85.44
2023-06-19T04:02:03.455Z,85.63
2023-06-19T04:03:03.120Z,84.93
2023-06-19T04:04:03.338Z,85.53
2023-06-19T04:05:02.914Z,86.24
2023-06-19T04:06:02.955Z,86.58
2023-06-19T04:07:03.004Z,86.48
2023-06-19T04:08:02.358Z,85.68
2023-06-19T04:09:02.613Z,86.04
2023-06-19T04:10:02.406Z,85.97
2023-06-19T04:11:02.692Z,86.78
2023-06-19T04:12:02.724Z,86.18
2023-06-19T04:13:02.412Z,87.28
2023-06-19T04:14:02.674Z,86.38
2023-06-19T04:15:02.732Z,85.94
2023-06-19T04:16:02.714Z,86.24
2023-06-19T04:17:02.788Z,86.33
2023-06-19T04:18:03.059Z,86.14
2023-06-19T04:19:02.726Z,86.04
2023-06-19T04:20:03.225Z,86.33
2023-06-19T04:21:03.355Z,86.14
2023-06-19T04:22:02.427Z,86.64
2023-06-19T04:23:02.706Z,87.14
2023-06-19T04:24:02.908Z,87.68
2023-06-19T04:25:02.657Z,87.98
2023-06-19T04:26:02.987Z,87.38
2023-06-19T04:27:02.159Z,87.58
2023-06-19T04:28:02.178Z,87.58
2023-06-19T04:29:02.488Z,86.88
2023-06-19T04:30:02.727Z,87.08
2023-06-19T04:31:02.203Z,86.68
2023-06-19T04:32:02.772Z,86.74
2023-06-19T04:33:02.563Z,87.34
2023-06-19T04:34:02.736Z,86.74
2023-06-19T04:35:03.027Z,87.44
2023-06-19T04:36:03.078Z,86.94
2023-06-19T04:37:02.736Z,86.74
2023-06-19T04:38:02.852Z,86.64
2023-06-19T04:39:03.091Z,86.10
2023-06-19T04:40:02.676Z,87.20
2023-06-19T04:41:02.686Z,86.30
2023-06-19T04:42:02.969Z,85.99
2023-06-19T04:43:03.093Z,86.10
2023-06-19T04:44:03.131Z,86.40
2023-06-19T04:45:03.122Z,85.80
2023-06-19T04:46:03.284Z,85.25
2023-06-19T04:47:02.568Z,84.75
2023-06-19T04:48:02.840Z,84.65
2023-06-19T04:49:03.019Z,84.45
2023-06-19T04:50:02.977Z,85.05
2023-06-19T04:51:02.948Z,85.75
2023-06-19T04:52:03.088Z,86.25
2023-06-19T04:53:03.539Z,85.75
2023-06-19T04:54:03.066Z,85.85
2023-06-19T04:55:03.319Z,86.25
2023-06-19T04:56:03.444Z,85.41
2023-06-19T04:57:02.511Z,85.91
2023-06-19T04:58:02.796Z,85.91
2023-06-19T04:59:02.380Z,86.11
2023-06-19T05:00:02.658Z,86.61
2023-06-19T05:01:02.905Z,86.52
2023-06-19T05:02:02.922Z,86.61
2023-06-19T05:03:03.390Z,86.11
2023-06-19T05:04:03.154Z,85.71
2023-06-19T05:05:02.906Z,85.31
2023-06-19T05:06:03.196Z,85.17
2023-06-19T05:07:02.539Z,85.27
2023-06-19T05:08:02.627Z,85.07
2023-06-19T05:09:02.420Z,85.47
2023-06-19T05:10:02.608Z,85.17
2023-06-19T05:11:02.603Z,85.07
2023-06-19T05:12:02.879Z,85.17
2023-06-19T05:13:03.155Z,84.97
2023-06-19T05:14:02.680Z,84.47
2023-06-19T05:15:02.677Z,84.43
2023-06-19T05:16:02.777Z,84.03
2023-06-19T05:17:02.325Z,84.03
2023-06-19T05:18:02.427Z,84.43
2023-06-19T05:19:02.022Z,83.53
2023-06-19T05:20:02.373Z,83.13
2023-06-19T05:21:02.157Z,82.39
2023-06-19T05:22:02.424Z,83.49
2023-06-19T05:23:02.311Z,83.09
2023-06-19T05:24:02.280Z,83.33
2023-06-19T05:25:02.630Z,83.63
2023-06-19T05:26:02.223Z,83.93
2023-06-19T05:27:03.144Z,84.19
2023-06-19T05:28:05.648Z,83.49
2023-06-19T05:29:03.011Z,83.79
2023-06-19T05:30:03.327Z,83.29
2023-06-19T05:31:03.037Z,82.79
2023-06-19T05:32:03.300Z,83.29
2023-06-19T05:33:03.553Z,82.65
2023-06-19T05:34:03.663Z,82.25
2023-06-19T05:35:03.603Z,82.25
2023-06-19T05:36:03.089Z,81.85
2023-06-19T05:37:02.994Z,81.56
2023-06-19T05:38:03.262Z,81.35
2023-06-19T05:39:02.956Z,81.31
2023-06-19T05:40:03.188Z,81.12
2023-06-19T05:41:02.790Z,80.91
2023-06-19T05:42:03.080Z,80.82
2023-06-19T05:43:03.110Z,80.82
2023-06-19T05:44:03.344Z,80.82
2023-06-19T05:45:03.309Z,80.62
2023-06-19T05:46:02.868Z,81.41
2023-06-19T05:47:03.241Z,81.41
2023-06-19T05:48:03.518Z,81.61
2023-06-19T05:49:03.538Z,81.51
2023-06-19T05:50:03.049Z,81.31
2023-06-19T05:51:03.270Z,81.71
2023-06-19T05:52:03.338Z,81.71
2023-06-19T05:53:03.423Z,81.92
2023-06-19T05:54:03.452Z,81.81
2023-06-19T05:55:03.705Z,81.87
2023-06-19T05:56:03.404Z,82.07
2023-06-19T05:57:02.714Z,82.41
2023-06-19T05:58:02.874Z,82.17
2023-06-19T05:59:02.597Z,82.17
2023-06-19T06:00:02.777Z,82.17
2023-06-19T06:01:02.940Z,81.67
2023-06-19T06:02:02.412Z,82.07
2023-06-19T06:03:02.188Z,82.07
2023-06-19T06:04:02.433Z,82.14
2023-06-19T06:05:02.509Z,82.43
2023-06-19T06:06:02.001Z,81.84
2023-06-19T06:07:02.972Z,81.93
2023-06-19T06:08:03.178Z,81.20
2023-06-19T06:09:03.211Z,80.70
2023-06-19T06:10:03.176Z,80.70
2023-06-19T06:11:02.551Z,80.90
2023-06-19T06:12:02.669Z,80.36
2023-06-19T06:13:02.550Z,80.66
2023-06-19T06:14:02.095Z,80.86
2023-06-19T06:15:02.322Z,80.96
2023-06-19T06:16:02.496Z,81.02
2023-06-19T06:17:02.472Z,80.72
2023-06-19T06:18:02.474Z,79.72
2023-06-19T06:19:02.455Z,79.33
2023-06-19T06:20:02.425Z,79.09
2023-06-19T06:21:02.402Z,78.79
2023-06-19T06:22:02.580Z,79.49
2023-06-19T06:23:02.069Z,78.85
2023-06-19T06:24:02.174Z,78.75
2023-06-19T06:25:02.373Z,78.75
2023-06-19T06:26:02.733Z,78.91
2023-06-19T06:27:02.427Z,78.72
2023-06-19T06:28:02.703Z,78.08
2023-06-19T06:29:02.728Z,77.58
2023-06-19T06:30:02.291Z,77.38
2023-06-19T06:31:02.555Z,77.64
2023-06-19T06:32:02.801Z,75.95
2023-06-19T06:33:02.900Z,76.49
2023-06-19T06:34:02.745Z,76.75
2023-06-19T06:35:02.304Z,77.34
2023-06-19T06:36:02.643Z,75.52
2023-06-19T06:37:06.546Z,75.92
2023-06-19T06:38:02.922Z,74.73
2023-06-19T06:39:02.419Z,73.93
2023-06-19T06:40:03.006Z,73.73
2023-06-19T06:41:02.445Z,74.82
2023-06-19T06:42:02.356Z,74.63
2023-06-19T06:43:02.370Z,75.02
2023-06-19T06:44:02.218Z,74.93
2023-06-19T06:45:01.834Z,74.82
2023-06-19T06:46:02.000Z,74.82
2023-06-19T06:47:02.531Z,74.59
2023-06-19T06:48:02.734Z,74.79
2023-06-19T06:49:02.891Z,74.69
2023-06-19T06:50:03.161Z,74.99
2023-06-19T06:51:02.926Z,74.46
2023-06-19T06:52:03.122Z,73.96
2023-06-19T06:53:03.085Z,73.56
2023-06-19T06:54:03.183Z,73.86
2023-06-19T06:55:03.105Z,74.26
2023-06-19T06:56:02.731Z,71.78
2023-06-19T06:57:02.667Z,72.57
2023-06-19T06:58:02.318Z,72.47
2023-06-19T06:59:02.294Z,72.27
2023-06-19T07:00:02.066Z,72.27
2023-06-19T07:01:02.382Z,72.07
2023-06-19T07:02:03.275Z,72.17
2023-06-19T07:03:02.799Z,72.37
2023-06-19T07:04:02.855Z,72.17
2023-06-19T07:05:03.011Z,72.47
2023-06-19T07:06:03.011Z,72.14
2023-06-19T07:07:02.724Z,72.04
2023-06-19T07:08:02.691Z,71.94
2023-06-19T07:09:02.575Z,72.14
2023-06-19T07:10:02.770Z,71.84
2023-06-19T07:11:02.433Z,72.53
2023-06-19T07:12:03.340Z,71.94
2023-06-19T07:13:02.820Z,72.04
2023-06-19T07:14:02.996Z,71.74
2023-06-19T07:15:03.123Z,71.54
2023-06-19T07:16:02.645Z,72.24
2023-06-19T07:17:03.465Z,71.54
2023-06-19T07:18:03.176Z,72.04
2023-06-19T07:19:03.381Z,72.07
2023-06-19T07:20:03.231Z,70.98
2023-06-19T07:21:03.457Z,72.07
2023-06-19T07:22:02.443Z,72.04
2023-06-19T07:23:02.873Z,71.64
2023-06-19T07:24:02.710Z,71.18
2023-06-19T07:25:02.864Z,71.44
2023-06-19T07:26:02.457Z,71.44
2023-06-19T07:27:02.738Z,71.84
2023-06-19T07:28:02.896Z,72.14
2023-06-19T07:29:03.034Z,72.14
2023-06-19T07:30:02.955Z,72.14
2023-06-19T07:31:02.968Z,71.91
2023-06-19T07:32:02.788Z,72.10
2023-06-19T07:33:02.896Z,73.00
2023-06-19T07:34:03.233Z,72.47
2023-06-19T07:35:02.793Z,72.36
2023-06-19T07:36:02.963Z,70.78
2023-06-19T07:37:02.293Z,69.59
2023-06-19T07:38:02.665Z,69.69
2023-06-19T07:39:02.794Z,70.48
2023-06-19T07:40:02.463Z,69.95
2023-06-19T07:41:02.472Z,69.46
2023-06-19T07:42:02.728Z,69.95
2023-06-19T07:43:03.296Z,68.66
2023-06-19T07:44:03.203Z,69.36
2023-06-19T07:45:02.764Z,70.21
2023-06-19T07:46:02.706Z,70.12
2023-06-19T07:47:02.331Z,69.72
2023-06-19T07:48:02.704Z,68.93
2023-06-19T07:49:02.326Z,70.81
2023-06-19T07:50:02.647Z,70.87
2023-06-19T07:51:02.751Z,66.95
2023-06-19T07:52:02.673Z,67.54
2023-06-19T07:53:02.948Z,68.50
2023-06-19T07:54:02.519Z,68.10
2023-06-19T07:55:02.780Z,67.71
2023-06-19T07:56:02.874Z,68.01
2023-06-19T07:57:02.978Z,68.50
2023-06-19T07:58:03.147Z,68.10
2023-06-19T07:59:05.844Z,67.11
2023-06-19T08:00:03.633Z,67.84
2023-06-19T08:01:02.929Z,67.94
2023-06-19T08:02:03.370Z,68.04
2023-06-19T08:03:03.644Z,68.24
2023-06-19T08:04:03.883Z,68.83
2023-06-19T08:05:03.901Z,67.41
2023-06-19T08:06:03.724Z,67.11
2023-06-19T08:07:03.390Z,67.35
2023-06-19T08:08:03.488Z,67.64
2023-06-19T08:09:03.601Z,68.43
2023-06-19T08:10:13.184Z,66.52
2023-06-19T08:11:03.580Z,66.42
2023-06-19T08:12:02.664Z,67.31
2023-06-19T08:13:02.774Z,68.01
2023-06-19T08:14:03.108Z,68.20
2023-06-19T08:15:02.604Z,67.02
2023-06-19T08:16:03.032Z,68.90
2023-06-19T08:17:03.315Z,69.16
2023-06-19T08:18:03.502Z,67.08
2023-06-19T08:19:03.100Z,67.28
2023-06-19T08:20:03.325Z,67.28
2023-06-19T08:21:03.492Z,66.19
2023-06-19T08:22:02.838Z,65.07
2023-06-19T08:23:05.157Z,64.97
2023-06-19T08:24:03.362Z,65.66
2023-06-19T08:25:03.358Z,65.56
2023-06-19T08:26:02.627Z,66.22
2023-06-19T08:27:03.374Z,65.63
2023-06-19T08:28:03.395Z,65.63
2023-06-19T08:29:03.586Z,66.72
2023-06-19T08:30:03.820Z,66.52
2023-06-19T08:31:03.424Z,65.41
2023-06-19T08:32:03.593Z,66.19
2023-06-19T08:33:03.828Z,66.09
2023-06-19T08:34:03.625Z,64.81
2023-06-19T08:35:03.528Z,64.42
2023-06-19T08:36:03.707Z,62.74
2023-06-19T08:37:03.027Z,62.74
2023-06-19T08:38:03.273Z,63.26
2023-06-19T08:39:03.395Z,64.94
2023-06-19T08:40:03.367Z,64.15
2023-06-19T08:41:02.854Z,65.14
2023-06-19T08:42:03.681Z,64.25
2023-06-19T08:43:03.699Z,63.16
2023-06-19T08:44:03.831Z,63.26
2023-06-19T08:45:03.972Z,63.26
2023-06-19T08:46:03.764Z,63.56
2023-06-19T08:47:03.085Z,62.40
2023-06-19T08:48:03.038Z,64.67
2023-06-19T08:49:03.307Z,64.58
2023-06-19T08:50:03.216Z,65.77
2023-06-19T08:51:02.856Z,65.14
2023-06-19T08:52:03.062Z,65.53
2023-06-19T08:53:03.350Z,64.25
2023-06-19T08:54:02.884Z,62.96
2023-06-19T08:55:03.360Z,64.05
2023-06-19T08:56:02.862Z,62.74
2023-06-19T08:57:03.867Z,62.24
2023-06-19T08:58:03.493Z,61.08
2023-06-19T08:59:03.545Z,61.58
2023-06-19T09:00:03.755Z,62.30
2023-06-19T09:01:04.080Z,62.01
2023-06-19T09:02:02.433Z,63.89
2023-06-19T09:03:13.395Z,63.65
2023-06-19T09:04:02.511Z,63.92
2023-06-19T09:05:02.225Z,61.16
2023-06-19T09:06:02.477Z,62.14
2023-06-19T09:07:02.807Z,62.74
2023-06-19T09:08:02.884Z,61.82
2023-06-19T09:09:02.779Z,61.10
2023-06-19T09:10:02.283Z,62.08
2023-06-19T09:11:02.451Z,60.57
2023-06-19T09:12:02.371Z,61.07
2023-06-19T09:13:01.952Z,60.38
2023-06-19T09:14:02.243Z,60.77
2023-06-19T09:15:02.350Z,61.04
2023-06-19T09:16:02.466Z,59.16
2023-06-19T09:17:02.775Z,58.45
2023-06-19T09:18:02.381Z,58.94
2023-06-19T09:19:02.654Z,57.56
2023-06-19T09:20:02.788Z,56.96
2023-06-19T09:21:02.353Z,57.95
2023-06-19T09:22:02.965Z,58.54
2023-06-19T09:23:02.501Z,57.26
2023-06-19T09:24:02.907Z,56.77
2023-06-19T09:25:02.992Z,57.78
2023-06-19T09:26:03.144Z,57.49
2023-06-19T09:27:03.085Z,57.39
2023-06-19T09:28:02.611Z,57.29
2023-06-19T09:29:02.716Z,57.09
2023-06-19T09:30:03.006Z,56.53
2023-06-19T09:31:03.163Z,56.43
2023-06-19T09:32:02.443Z,57.61
2023-06-19T09:33:02.004Z,58.30
2023-06-19T09:34:02.300Z,57.91
2023-06-19T09:35:02.462Z,58.43
2023-06-19T09:36:02.749Z,58.92
2023-06-19T09:37:02.720Z,59.19
2023-06-19T09:38:02.814Z,58.50
2023-06-19T09:39:02.756Z,59.06
2023-06-19T09:40:02.362Z,57.98
2023-06-19T09:41:02.618Z,57.56
2023-06-19T09:42:02.943Z,58.64
2023-06-19T09:43:02.491Z,58.45
2023-06-19T09:44:02.702Z,57.06
2023-06-19T09:45:03.014Z,59.43
2023-06-19T09:46:03.020Z,57.53
2023-06-19T09:47:03.303Z,57.04
2023-06-19T09:48:02.883Z,57.60
2023-06-19T09:49:03.116Z,56.81
2023-06-19T09:50:03.223Z,56.69
2023-06-19T09:51:02.856Z,55.80
2023-06-19T09:52:02.893Z,56.29
2023-06-19T09:53:05.252Z,54.69
2023-06-19T09:54:02.630Z,55.38
2023-06-19T09:55:02.943Z,54.69
2023-06-19T09:56:02.777Z,54.76
2023-06-19T09:57:03.141Z,54.08
2023-06-19T09:58:03.158Z,54.47
2023-06-19T09:59:02.755Z,55.65
2023-06-19T10:00:03.110Z,53.19
2023-06-19T10:01:02.558Z,53.66
2023-06-19T10:02:02.622Z,54.54
2023-06-19T10:03:02.108Z,51.69
2023-06-19T10:04:02.315Z,53.27
2023-06-19T10:05:02.550Z,53.46
2023-06-19T10:06:02.553Z,52.67
2023-06-19T10:07:02.714Z,53.63
2023-06-19T10:08:02.180Z,55.69
2023-06-19T10:09:02.420Z,55.37
2023-06-19T10:10:02.352Z,52.62
2023-06-19T10:11:02.476Z,51.62
2023-06-19T10:12:03.303Z,52.50
2023-06-19T10:13:03.128Z,51.91
2023-06-19T10:14:02.704Z,53.26
2023-06-19T10:15:02.911Z,51.59
2023-06-19T10:16:02.854Z,49.26
2023-06-19T10:17:03.644Z,51.74
2023-06-19T10:18:03.597Z,52.30
2023-06-19T10:19:03.583Z,50.83
2023-06-19T10:20:03.616Z,51.22
2023-06-19T10:21:03.617Z,52.11
2023-06-19T10:22:02.657Z,52.86
2023-06-19T10:23:02.743Z,51.49
2023-06-19T10:24:03.506Z,51.07
2023-06-19T10:25:03.007Z,50.59
2023-06-19T10:26:04.196Z,49.99
2023-06-19T10:27:02.732Z,48.82
2023-06-19T10:28:03.098Z,48.23
2023-06-19T10:29:03.318Z,49.02
2023-06-19T10:30:10.980Z,50.49
2023-06-19T10:31:03.448Z,49.92
2023-06-19T10:32:03.403Z,51.69
2023-06-19T10:33:02.628Z,51.27
2023-06-19T10:34:02.753Z,51.76
2023-06-19T10:35:02.999Z,49.41
2023-06-19T10:36:02.536Z,49.97
2023-06-19T10:37:02.788Z,49.97
2023-06-19T10:38:03.093Z,50.56
2023-06-19T10:39:03.283Z,50.66
2023-06-19T10:40:03.533Z,50.76
2023-06-19T10:41:03.000Z,49.68
2023-06-19T10:42:05.816Z,50.04
2023-06-19T10:43:02.915Z,48.48
2023-06-19T10:44:02.958Z,49.65
2023-06-19T10:45:02.881Z,49.36
2023-06-19T10:46:02.859Z,48.80
2023-06-19T10:47:02.926Z,49.85
2023-06-19T10:48:02.973Z,48.58
2023-06-19T10:49:02.987Z,48.87
2023-06-19T10:50:02.366Z,48.19
2023-06-19T10:51:02.670Z,49.36
2023-06-19T10:52:02.930Z,48.21
2023-06-19T10:53:02.583Z,49.09
2023-06-19T10:54:02.920Z,49.09
2023-06-19T10:55:03.189Z,49.87
2023-06-19T10:56:02.720Z,49.55
2023-06-19T10:57:02.929Z,50.42
2023-06-19T10:58:03.818Z,50.02
2023-06-19T10:59:03.332Z,48.92
2023-06-19T11:00:03.876Z,46.57
2023-06-19T11:01:03.422Z,47.94
2023-06-19T11:02:03.551Z,46.67
2023-06-19T11:03:03.102Z,46.69
2023-06-19T11:04:02.546Z,47.47
2023-06-19T11:05:02.901Z,47.47
2023-06-19T11:06:02.386Z,47.16
2023-06-19T11:07:02.623Z,47.55
2023-06-19T11:08:01.963Z,48.43
2023-06-19T11:09:02.170Z,47.45
2023-06-19T11:10:02.383Z,47.53
2023-06-19T11:11:01.973Z,47.14
2023-06-19T11:12:02.219Z,47.92
2023-06-19T11:13:02.478Z,45.55
2023-06-19T11:14:02.648Z,44.67
2023-06-19T11:15:02.857Z,45.45
2023-06-19T11:16:03.140Z,46.70
2023-06-19T11:17:02.576Z,45.45
2023-06-19T11:18:02.000Z,45.75
2023-06-19T11:19:02.358Z,47.87
2023-06-19T11:20:02.160Z,45.43
2023-06-19T11:21:03.104Z,46.58
2023-06-19T11:22:02.454Z,46.68
2023-06-19T11:23:02.701Z,46.58
2023-06-19T11:24:02.668Z,45.78
2023-06-19T11:25:02.198Z,45.19
2023-06-19T11:26:02.505Z,45.68
2023-06-19T11:27:02.690Z,43.53
2023-06-19T11:28:03.249Z,46.75
2023-06-19T11:29:02.758Z,45.58
2023-06-19T11:30:03.067Z,44.12
2023-06-19T11:31:03.468Z,46.56
2023-06-19T11:32:02.706Z,47.22
2023-06-19T11:33:02.073Z,46.34
2023-06-19T11:34:02.431Z,44.29
2023-06-19T11:35:02.109Z,43.32
2023-06-19T11:36:02.512Z,45.00
2023-06-19T11:37:02.087Z,45.39
2023-06-19T11:38:02.475Z,45.19
2023-06-19T11:39:02.755Z,44.60
2023-06-19T11:40:02.936Z,45.87
2023-06-19T11:41:02.904Z,44.41
2023-06-19T11:42:02.265Z,42.85
2023-06-19T11:43:02.425Z,46.14
2023-06-19T11:44:02.723Z,44.38
2023-06-19T11:45:02.920Z,43.22
2023-06-19T11:46:03.228Z,44.70
2023-06-19T11:47:03.133Z,44.21
2023-06-19T11:48:03.119Z,44.82
2023-06-19T11:49:07.452Z,43.69
2023-06-19T11:50:03.117Z,44.18
2023-06-19T11:51:03.448Z,45.76
2023-06-19T11:52:03.785Z,46.06
2023-06-19T11:53:02.796Z,45.76
2023-06-19T11:54:03.073Z,44.98
2023-06-19T11:55:02.800Z,45.45
2023-06-19T11:56:03.165Z,44.59
2023-06-19T11:57:03.409Z,45.45
2023-06-19T11:58:02.488Z,46.04
2023-06-19T11:59:02.326Z,47.38
2023-06-19T12:00:02.646Z,45.53
2023-06-19T12:01:02.993Z,43.87
2023-06-19T12:02:03.082Z,43.10
2023-06-19T12:03:03.239Z,44.40
2023-06-19T12:04:03.788Z,45.28
2023-06-19T12:05:03.371Z,45.18
2023-06-19T12:06:03.713Z,45.75
2023-06-19T12:07:03.623Z,46.33
2023-06-19T12:08:02.991Z,45.84
2023-06-19T12:09:02.690Z,45.06
2023-06-19T12:10:04.007Z,45.43
2023-06-19T12:11:03.342Z,46.60
2023-06-19T12:12:03.235Z,44.92
2023-06-19T12:13:03.321Z,45.02
2023-06-19T12:14:03.656Z,43.65
2023-06-19T12:15:03.326Z,43.95
2023-06-19T12:16:03.286Z,44.06
2023-06-19T12:17:03.630Z,43.49
2023-06-19T12:18:03.137Z,44.67
2023-06-19T12:19:02.770Z,43.20
2023-06-19T12:20:02.929Z,45.04
2023-06-19T12:21:03.264Z,45.23
2023-06-19T12:22:03.345Z,44.24
2023-06-19T12:23:03.597Z,44.43
2023-06-19T12:24:03.643Z,43.36
2023-06-19T12:25:03.858Z,42.58
2023-06-19T12:26:03.883Z,42.97
2023-06-19T12:27:03.927Z,43.55
2023-06-19T12:28:03.428Z,44.24
2023-06-19T12:29:03.066Z,43.95
2023-06-19T12:30:03.407Z,43.75
2023-06-19T12:31:03.026Z,43.04
2023-06-19T12:32:03.210Z,43.14
2023-06-19T12:33:03.549Z,43.80
2023-06-19T12:34:10.424Z,41.36
2023-06-19T12:35:03.591Z,42.83
2023-06-19T12:36:03.279Z,42.80
2023-06-19T12:37:03.592Z,41.93
2023-06-19T12:38:06.653Z,41.83
2023-06-19T12:39:03.796Z,40.56
2023-06-19T12:40:04.045Z,42.61
2023-06-19T12:41:03.844Z,42.22
2023-06-19T12:42:04.158Z,40.78
2023-06-19T12:43:03.591Z,41.28
2023-06-19T12:44:03.789Z,41.67
2023-06-19T12:45:03.821Z,43.24
2023-06-19T12:46:03.263Z,42.26
2023-06-19T12:47:03.496Z,42.29
2023-06-19T12:48:04.153Z,43.16
2023-06-19T12:49:03.823Z,42.97
2023-06-19T12:50:03.507Z,44.82
2023-06-19T12:51:03.787Z,43.82
2023-06-19T12:52:03.684Z,42.75